createdAt,value
2018-03-06T00:02:04.243Z,108.50
2018-03-06T00:04:31.847Z,98.75
2018-03-06T00:06:59.438Z,109.35
2018-03-06T00:09:27.055Z,106.75
2018-03-06T00:11:54.715Z,103.10
2018-03-06T00:14:22.350Z,99.37
2018-03-06T00:16:49.980Z,100.65
2018-03-06T00:19:17.612Z,106.07
2018-03-06T00:21:45.248Z,97.60
2018-03-06T00:24:13.602Z,118.13
2018-03-06T00:26:41.280Z,121.78
2018-03-06T00:29:08.878Z,115.30
2018-03-06T00:31:36.476Z,127.47
2018-03-06T00:34:04.074Z,113.95
2018-03-06T00:36:32.450Z,112.72
2018-03-06T00:39:00.800Z,113.35
2018-03-06T00:41:28.455Z,118.05
2018-03-06T00:43:56.038Z,110.82
2018-03-06T00:46:23.620Z,118.28
2018-03-06T00:48:51.263Z,110.68
2018-03-06T00:51:18.876Z,123.80
2018-03-06T00:53:46.509Z,122.90
2018-03-06T00:56:14.165Z,125.53
2018-03-06T00:58:41.807Z,125.07
2018-03-06T01:01:09.458Z,121.80
2018-03-06T01:03:37.103Z,131.43
2018-03-06T01:06:04.700Z,124.45
2018-03-06T01:08:33.126Z,139.85
2018-03-06T01:11:00.696Z,121.28
2018-03-06T01:13:28.353Z,119.70
2018-03-06T01:15:55.980Z,110.47
2018-03-06T01:18:23.562Z,116.57
2018-03-06T01:20:51.247Z,117.40
2018-03-06T01:23:18.862Z,132.32
2018-03-06T01:25:46.508Z,129.00
2018-03-06T01:28:14.112Z,130.02
2018-03-06T01:30:41.746Z,130.43
2018-03-06T01:33:09.346Z,148.65
2018-03-06T01:35:37.020Z,134.73
2018-03-06T01:38:04.602Z,135.82
2018-03-06T01:40:32.966Z,129.43
2018-03-06T01:43:01.355Z,139.62
2018-03-06T01:45:29.744Z,131.77
2018-03-06T01:47:58.135Z,144.73
2018-03-06T01:50:25.780Z,167.35
2018-03-06T01:52:54.178Z,174.15
2018-03-06T01:55:22.607Z,153.45
2018-03-06T01:57:50.215Z,166.98
2018-03-06T02:00:17.814Z,166.75
2018-03-06T02:02:45.468Z,177.60
2018-03-06T02:05:13.106Z,171.77
2018-03-06T02:07:40.727Z,199.38
2018-03-06T02:10:08.371Z,175.70
2018-03-06T02:12:36.007Z,178.18
2018-03-06T02:15:03.596Z,188.15
2018-03-06T02:17:31.206Z,175.48
2018-03-06T02:19:58.794Z,190.57
2018-03-06T02:31:24.362Z,201.73
2018-03-06T02:33:52.062Z,224.40
2018-03-06T02:36:20.459Z,190.70
2018-03-06T02:38:48.915Z,241.07
2018-03-06T02:41:16.510Z,223.50
2018-03-06T02:43:44.127Z,243.23
2018-03-06T02:46:11.755Z,236.25
2018-03-06T02:48:39.359Z,225.62
2018-03-06T02:51:06.991Z,221.60
2018-03-06T02:53:34.658Z,224.05
2018-03-06T02:56:02.301Z,284.33
2018-03-06T02:58:29.905Z,263.45
2018-03-06T03:00:57.552Z,279.75
2018-03-06T03:03:25.152Z,265.30
2018-03-06T03:05:52.784Z,269.50
2018-03-06T03:08:20.383Z,256.95
2018-03-06T03:10:47.970Z,265.15
2018-03-06T03:13:15.575Z,278.05
2018-03-06T03:15:43.912Z,262.48
2018-03-06T03:18:11.535Z,267.50
2018-03-06T03:20:39.149Z,266.20
2018-03-06T03:23:06.816Z,265.45
2018-03-06T03:25:34.407Z,274.08
2018-03-06T03:28:02.824Z,265.33
2018-03-06T03:30:30.408Z,241.70
2018-03-06T03:32:58.026Z,223.13
2018-03-06T03:35:25.650Z,230.25
2018-03-06T03:37:53.243Z,220.55
2018-03-06T03:40:20.878Z,243.48
2018-03-06T03:42:49.234Z,254.82
2018-03-06T03:45:16.902Z,264.15
2018-03-06T03:47:44.477Z,264.90
2018-03-06T03:50:12.116Z,273.15
2018-03-06T03:52:39.722Z,237.88
2018-03-06T03:55:07.359Z,293.67
2018-03-06T03:57:35.752Z,286.58
2018-03-06T04:00:04.160Z,319.73
2018-03-06T04:02:31.811Z,294.95
2018-03-06T04:04:59.432Z,312.20
2018-03-06T04:07:27.062Z,284.30
2018-03-06T04:09:54.673Z,275.05
2018-03-06T04:12:23.066Z,275.13
2018-03-06T04:14:50.692Z,276.40
2018-03-06T04:17:18.396Z,283.30
2018-03-06T04:19:46.778Z,297.98
2018-03-06T04:22:14.359Z,316.98
2018-03-06T04:24:41.968Z,303.58
2018-03-06T04:27:10.377Z,281.10
2018-03-06T04:29:37.999Z,294.30
2018-03-06T04:32:06.413Z,256.80
2018-03-06T04:34:34.013Z,280.80
2018-03-06T04:37:01.606Z,246.50
2018-03-06T04:39:29.220Z,244.52
2018-03-06T04:41:56.823Z,240.50
2018-03-06T04:44:24.443Z,298.92
2018-03-06T04:46:52.110Z,283.85
2018-03-06T04:49:19.738Z,275.15
2018-03-06T04:51:47.324Z,249.12
2018-03-06T04:54:14.974Z,295.10
2018-03-06T04:56:42.568Z,302.85
2018-03-06T04:59:10.224Z,293.77
2018-03-06T05:01:38.738Z,276.88
2018-03-06T05:04:13.577Z,252.73
2018-03-06T05:06:49.284Z,257.60
2018-03-06T05:09:40.876Z,304.23
2018-03-06T05:12:26.929Z,272.40
2018-03-06T05:15:13.714Z,263.67
2018-03-06T05:17:41.313Z,256.23
2018-03-06T05:20:09.680Z,227.68
2018-03-06T05:22:39.124Z,238.87
2018-03-06T05:25:06.749Z,240.60
2018-03-06T05:27:34.404Z,252.70
2018-03-06T05:30:02.059Z,302.40
2018-03-06T05:32:29.667Z,305.67
2018-03-06T05:34:57.320Z,350.98
2018-03-06T05:37:24.903Z,309.40
2018-03-06T05:39:52.536Z,344.02
2018-03-06T05:42:20.125Z,335.95
2018-03-06T05:44:47.775Z,324.75
2018-03-06T05:47:15.454Z,274.25
2018-03-06T05:49:43.016Z,289.63
2018-03-06T05:52:10.638Z,267.83
2018-03-06T05:54:38.271Z,267.30
2018-03-06T05:57:05.850Z,225.77
2018-03-06T05:59:33.455Z,255.70
2018-03-06T06:02:01.091Z,253.70
2018-03-06T06:04:28.674Z,227.27
2018-03-06T06:06:56.327Z,243.02
2018-03-06T06:09:23.903Z,273.23
2018-03-06T06:12:12.019Z,245.57
2018-03-06T06:17:48.414Z,318.90
2018-03-06T06:20:15.999Z,311.70
2018-03-06T06:22:43.679Z,261.40
2018-03-06T06:25:11.317Z,250.80
2018-03-06T06:33:30.931Z,331.92
2018-03-06T06:42:07.027Z,284.23
2018-03-06T06:44:34.682Z,227.95
2018-03-06T06:47:02.283Z,216.57
2018-03-06T06:49:30.710Z,179.73
2018-03-06T06:51:58.331Z,177.15
2018-03-06T06:54:26.765Z,166.95
2018-03-06T06:56:54.374Z,162.32
2018-03-06T06:59:22.746Z,156.45
2018-03-06T07:01:54.120Z,152.30
2018-03-06T07:04:21.776Z,143.70
2018-03-06T07:06:49.311Z,136.32
2018-03-06T07:09:16.917Z,140.05
2018-03-06T07:11:44.540Z,127.38
2018-03-06T07:14:12.881Z,126.15
2018-03-06T07:16:40.463Z,142.70
2018-03-06T07:19:26.880Z,124.82
2018-03-06T07:21:55.247Z,132.80
2018-03-06T07:24:22.819Z,128.73
2018-03-06T07:26:51.227Z,123.22
2018-03-06T07:29:18.875Z,129.98
2018-03-06T07:31:50.572Z,133.82
2018-03-06T07:34:18.158Z,137.23
2018-03-06T07:36:45.734Z,136.37
2018-03-06T07:39:14.124Z,133.00
2018-03-06T07:41:41.727Z,130.30
2018-03-06T07:44:09.331Z,113.00
2018-03-06T07:46:37.707Z,120.37
2018-03-06T07:51:51.905Z,121.93
2018-03-06T07:54:19.507Z,122.47
2018-03-06T07:56:47.155Z,133.12
2018-03-06T07:59:14.757Z,130.37
2018-03-06T08:01:43.135Z,133.52
2018-03-06T08:04:11.491Z,133.40
2018-03-06T08:06:39.118Z,127.95
2018-03-06T08:09:06.723Z,125.05
2018-03-06T08:11:34.308Z,117.20
2018-03-06T08:16:55.135Z,118.53
2018-03-06T08:19:22.766Z,122.80
2018-03-06T08:21:50.353Z,123.10
2018-03-06T08:24:17.979Z,115.40
2018-03-06T08:26:45.569Z,111.23
2018-03-06T08:29:13.162Z,115.43
2018-03-06T08:31:40.744Z,106.17
2018-03-06T08:34:08.351Z,100.77
2018-03-06T08:36:36.706Z,102.27
2018-03-06T08:39:04.332Z,112.43
2018-03-06T08:41:31.927Z,103.43
2018-03-06T08:44:01.500Z,112.43
2018-03-06T08:46:29.095Z,87.87
2018-03-06T08:48:56.705Z,89.30
2018-03-06T08:51:24.363Z,91.53
2018-03-06T08:53:58.395Z,89.80
2018-03-06T08:56:25.969Z,96.80
2018-03-06T08:59:05.248Z,90.87
2018-03-06T09:01:34.871Z,95.47
2018-03-06T09:04:03.191Z,97.73
2018-03-06T09:06:30.838Z,101.73
2018-03-06T09:08:58.414Z,104.00
2018-03-06T09:11:26.058Z,100.10
2018-03-06T09:13:53.625Z,101.60
2018-03-06T09:16:27.209Z,104.60
2018-03-06T09:18:54.832Z,103.50
2018-03-06T09:21:22.457Z,95.53
2018-03-06T09:23:50.100Z,97.23
2018-03-06T09:26:17.666Z,107.47
2018-03-06T09:28:45.313Z,103.27
2018-03-06T09:31:12.946Z,97.03
2018-03-06T09:33:41.519Z,92.67
2018-03-06T09:36:09.120Z,90.73
2018-03-06T09:38:36.767Z,99.90
2018-03-06T09:41:04.387Z,93.90
2018-03-06T09:49:40.470Z,85.10
2018-03-06T09:52:08.501Z,86.80
2018-03-06T09:54:36.082Z,86.80
2018-03-06T09:57:03.685Z,90.37
2018-03-06T09:59:32.072Z,84.23
2018-03-06T10:01:59.703Z,79.60
2018-03-06T10:10:18.409Z,76.93
2018-03-06T10:12:46.761Z,95.60
2018-03-06T10:15:14.410Z,85.70
2018-03-06T10:17:42.030Z,82.90
2018-03-06T10:20:09.593Z,82.03
2018-03-06T10:22:37.168Z,81.03
2018-03-06T10:25:04.726Z,80.60
2018-03-06T10:27:32.305Z,72.37
2018-03-06T10:29:59.945Z,80.53
2018-03-06T10:32:27.547Z,80.30
2018-03-06T10:34:55.135Z,75.60
2018-03-06T10:37:22.738Z,66.33
2018-03-06T10:39:50.388Z,75.47
2018-03-06T10:42:18.014Z,65.33
2018-03-06T10:44:46.370Z,62.17
2018-03-06T10:47:14.036Z,65.37
2018-03-06T10:49:41.626Z,61.90
2018-03-06T10:52:10.213Z,61.50
2018-03-06T11:00:33.446Z,56.93
2018-03-06T11:03:01.036Z,59.43
2018-03-06T11:05:28.730Z,55.63
2018-03-06T11:07:56.383Z,52.73
2018-03-06T11:10:23.938Z,56.53
2018-03-06T11:12:52.303Z,52.30
2018-03-06T11:15:19.900Z,46.17
2018-03-06T11:17:47.520Z,50.63
2018-03-06T11:20:15.167Z,50.83
2018-03-06T11:22:57.526Z,51.33
2018-03-06T11:25:25.115Z,49.87
2018-03-06T11:27:52.715Z,52.83
2018-03-06T11:30:21.030Z,50.83
2018-03-06T11:32:56.962Z,53.67
2018-03-06T11:35:26.577Z,53.00
2018-03-06T11:37:54.184Z,51.53
2018-03-06T11:40:21.823Z,51.97
2018-03-06T11:42:49.429Z,53.20
2018-03-06T11:45:17.054Z,51.40
2018-03-06T11:47:44.675Z,50.90
2018-03-06T11:50:12.250Z,55.30
2018-03-06T11:52:39.871Z,50.97
2018-03-06T11:55:07.485Z,47.30
2018-03-06T11:57:35.874Z,51.20
2018-03-06T12:00:03.476Z,52.00
2018-03-06T12:02:31.090Z,46.90
2018-03-06T12:04:59.506Z,46.50
2018-03-06T12:07:27.093Z,50.23
2018-03-06T12:09:54.719Z,52.23
2018-03-06T12:12:37.954Z,49.10
2018-03-06T12:15:05.551Z,54.80
2018-03-06T12:17:33.163Z,50.43
2018-03-06T12:20:00.805Z,53.37
2018-03-06T12:22:28.439Z,51.67
2018-03-06T12:24:56.075Z,49.20
2018-03-06T12:27:23.667Z,50.40
2018-03-06T12:29:52.007Z,46.20
2018-03-06T12:32:19.555Z,49.00
2018-03-06T12:34:47.122Z,52.50
2018-03-06T12:37:14.731Z,48.17
2018-03-06T12:39:43.105Z,49.47
2018-03-06T12:42:11.527Z,57.87
2018-03-06T12:47:51.206Z,48.50
2018-03-06T12:50:18.845Z,51.30
2018-03-06T12:52:46.449Z,48.83
2018-03-06T12:55:14.055Z,60.07
2018-03-06T13:00:55.114Z,51.03
2018-03-06T13:03:22.723Z,46.53
2018-03-06T13:05:50.276Z,47.23
2018-03-06T13:08:17.879Z,45.70
2018-03-06T13:10:46.306Z,51.50
2018-03-06T13:13:13.907Z,45.60
2018-03-06T13:15:41.522Z,47.70
2018-03-06T13:21:13.939Z,49.63
2018-03-06T13:23:43.539Z,49.63
2018-03-06T13:29:05.056Z,49.33
2018-03-06T13:37:36.235Z,46.20
2018-03-06T13:42:58.315Z,44.23
2018-03-06T13:45:25.895Z,43.53
2018-03-06T13:47:53.510Z,46.60
2018-03-06T13:50:21.074Z,43.17
2018-03-06T13:52:48.639Z,45.50
2018-03-06T13:55:16.230Z,45.60
2018-03-06T13:57:43.851Z,45.63
2018-03-06T14:00:11.410Z,47.00
2018-03-06T14:02:39.034Z,44.90
2018-03-06T14:05:07.447Z,46.67
2018-03-06T14:07:35.043Z,45.07
2018-03-06T14:10:02.654Z,40.30
2018-03-06T14:12:30.995Z,47.03
2018-03-06T14:14:58.601Z,42.60
2018-03-06T14:17:26.928Z,41.27
2018-03-06T14:19:54.510Z,41.37
2018-03-06T14:22:22.131Z,45.23
2018-03-06T14:28:04.531Z,51.90
2018-03-06T14:30:32.172Z,45.30
2018-03-06T14:33:00.543Z,46.40
2018-03-06T14:35:28.133Z,48.47
2018-03-06T14:37:55.737Z,46.23
2018-03-06T14:40:23.298Z,45.47
2018-03-06T14:42:50.935Z,46.70
2018-03-06T14:45:18.556Z,46.90
2018-03-06T14:47:46.991Z,50.13
2018-03-06T14:50:14.644Z,44.17
2018-03-06T14:52:42.294Z,67.63
2018-03-06T14:55:09.920Z,49.50
2018-03-06T15:00:33.355Z,44.60
2018-03-06T15:03:00.998Z,44.93
2018-03-06T15:05:28.610Z,43.33
2018-03-06T15:13:55.454Z,45.80
2018-03-06T15:16:23.091Z,41.63
2018-03-06T15:18:50.728Z,44.27
2018-03-06T15:21:19.091Z,58.07
2018-03-06T15:23:51.345Z,44.70
2018-03-06T15:26:18.923Z,39.73
2018-03-06T15:28:46.562Z,40.83
2018-03-06T15:31:14.171Z,34.80
2018-03-06T15:33:41.763Z,39.63
2018-03-06T15:36:09.415Z,40.10
2018-03-06T15:38:37.021Z,39.07
2018-03-06T15:41:04.663Z,45.30
2018-03-06T15:43:32.323Z,36.87
2018-03-06T15:45:59.985Z,33.60
2018-03-06T15:48:27.673Z,43.00
2018-03-06T15:50:56.064Z,43.43
2018-03-06T15:53:28.456Z,41.00
2018-03-06T15:55:56.818Z,41.20
2018-03-06T15:58:24.446Z,48.30
2018-03-06T16:00:58.835Z,46.93
2018-03-06T16:03:26.452Z,45.03
2018-03-06T16:05:58.503Z,43.20
2018-03-06T16:17:11.093Z,39.43
2018-03-06T16:19:38.710Z,38.80
2018-03-06T16:22:06.367Z,38.77
2018-03-06T16:24:34.009Z,41.97
2018-03-06T16:30:00.414Z,35.73
2018-03-06T16:32:28.828Z,35.80
2018-03-06T16:34:56.473Z,36.53
2018-03-06T16:40:24.423Z,35.63
2018-03-06T16:51:50.473Z,36.60
2018-03-06T16:54:18.112Z,28.93
2018-03-06T16:56:45.743Z,37.50
2018-03-06T16:59:14.152Z,48.40
2018-03-06T17:01:41.757Z,58.87
2018-03-06T17:04:09.412Z,69.73
2018-03-06T17:06:37.040Z,42.17
2018-03-06T17:09:04.661Z,44.30
2018-03-06T17:11:32.306Z,46.33
2018-03-06T17:13:59.980Z,51.73
2018-03-06T17:16:27.572Z,56.30
2018-03-06T17:18:55.250Z,44.67
2018-03-06T17:21:22.834Z,45.20
2018-03-06T17:23:50.491Z,46.90
2018-03-06T17:26:18.139Z,47.80
2018-03-06T17:28:45.748Z,51.77
2018-03-06T17:31:13.385Z,55.30
2018-03-06T17:33:41.016Z,51.97
2018-03-06T17:36:08.653Z,58.53
2018-03-06T17:38:36.295Z,46.40
2018-03-06T17:41:04.719Z,45.73
2018-03-06T17:43:46.610Z,45.97
2018-03-06T17:46:24.640Z,50.00
2018-03-06T17:48:52.251Z,48.40
2018-03-06T17:51:20.668Z,56.43
2018-03-06T17:53:48.281Z,49.50
2018-03-06T17:56:16.677Z,46.47
2018-03-06T17:58:45.080Z,50.97
2018-03-06T18:01:12.718Z,51.53
2018-03-06T18:03:40.348Z,59.10
2018-03-06T18:06:07.987Z,51.33
2018-03-06T18:08:35.618Z,52.83
2018-03-06T18:11:03.237Z,58.83
2018-03-06T18:13:31.635Z,50.90
2018-03-06T18:15:59.265Z,50.17
2018-03-06T18:18:26.920Z,51.90
2018-03-06T18:20:54.536Z,50.25
2018-03-06T18:23:22.944Z,51.90
2018-03-06T18:25:50.629Z,57.58
2018-03-06T18:28:18.270Z,55.50
2018-03-06T18:30:45.952Z,53.70
2018-03-06T18:33:28.209Z,69.47
2018-03-06T18:35:55.830Z,63.08
2018-03-06T18:38:24.275Z,62.35
2018-03-06T18:40:51.900Z,65.45
2018-03-06T18:43:19.540Z,64.22
2018-03-06T18:45:47.941Z,58.67
2018-03-06T18:48:15.580Z,65.93
2018-03-06T18:50:55.812Z,62.80
2018-03-06T18:53:23.488Z,69.07
2018-03-06T18:55:51.909Z,64.47
2018-03-06T18:58:19.553Z,61.08
2018-03-06T19:04:12.529Z,46.88
2018-03-06T19:07:13.687Z,43.13
2018-03-06T19:09:41.292Z,38.15
2018-03-06T19:12:10.884Z,40.17
2018-03-06T19:14:38.468Z,39.95
2018-03-06T19:23:01.436Z,31.67
2018-03-06T19:25:29.031Z,32.15
2018-03-06T19:27:57.369Z,35.00
2018-03-06T19:30:24.961Z,32.33
2018-03-06T19:32:53.407Z,33.30
2018-03-06T19:35:20.948Z,39.28
2018-03-06T19:37:48.549Z,37.05
2018-03-06T19:40:16.068Z,40.20
2018-03-06T19:42:43.653Z,37.00
2018-03-06T19:45:11.197Z,37.28
2018-03-06T19:47:38.786Z,36.45
2018-03-06T19:50:06.385Z,33.17
2018-03-06T19:52:34.005Z,37.65
2018-03-06T19:55:01.600Z,36.65
2018-03-06T19:57:29.231Z,36.72
2018-03-06T19:59:56.843Z,35.53
2018-03-06T20:02:24.469Z,34.08
2018-03-06T20:04:52.851Z,35.30
2018-03-06T20:07:21.249Z,37.50
2018-03-06T20:09:48.964Z,39.78
2018-03-06T20:12:16.572Z,43.45
2018-03-06T20:14:49.788Z,37.72
2018-03-06T20:20:34.743Z,36.03
2018-03-06T20:23:03.076Z,39.75
2018-03-06T20:25:36.266Z,50.85
2018-03-06T20:28:03.897Z,37.20
2018-03-06T20:30:37.127Z,36.50
2018-03-06T20:33:10.446Z,38.40
2018-03-06T20:35:38.835Z,34.28
2018-03-06T20:38:07.204Z,35.85
2018-03-06T20:40:35.572Z,39.33
2018-03-06T20:43:03.207Z,34.30
2018-03-06T20:45:36.432Z,33.25
2018-03-06T20:48:04.760Z,31.75
2018-03-06T20:50:32.334Z,30.92
2018-03-06T20:53:05.698Z,33.15
2018-03-06T20:55:33.304Z,37.25
2018-03-06T20:58:00.926Z,36.95
2018-03-06T21:00:28.575Z,34.90
2018-03-06T21:02:56.190Z,33.85
2018-03-06T21:05:23.836Z,33.58
2018-03-06T21:07:51.463Z,34.33
2018-03-06T21:10:19.129Z,36.90
2018-03-06T21:12:46.793Z,37.97
2018-03-06T21:15:14.412Z,38.72
2018-03-06T21:17:42.008Z,35.85
2018-03-06T21:20:09.632Z,40.78
2018-03-06T21:22:37.264Z,35.22
2018-03-06T21:25:04.863Z,35.33
2018-03-06T21:27:33.206Z,34.50
2018-03-06T21:30:00.817Z,34.28
2018-03-06T21:32:28.447Z,38.92
2018-03-06T21:34:56.040Z,32.20
2018-03-06T21:37:23.624Z,34.15
2018-03-06T21:39:51.199Z,34.15
2018-03-06T21:42:18.820Z,39.33
2018-03-06T21:44:46.449Z,33.33
2018-03-06T21:47:14.051Z,36.13
2018-03-06T21:49:41.614Z,33.58
2018-03-06T21:52:09.187Z,32.45
2018-03-06T21:54:36.794Z,32.75
2018-03-06T21:57:04.427Z,31.83
2018-03-06T21:59:32.065Z,32.55
2018-03-06T22:01:59.725Z,29.12
2018-03-06T22:04:27.353Z,29.20
2018-03-06T22:06:55.139Z,27.92
2018-03-06T22:09:22.761Z,29.10
2018-03-06T22:11:50.374Z,26.73
2018-03-06T22:14:17.993Z,24.92
2018-03-06T22:16:46.393Z,23.95
2018-03-06T22:19:14.032Z,23.80
2018-03-06T22:21:42.518Z,34.88
2018-03-06T22:24:10.870Z,22.95
2018-03-06T22:26:38.461Z,28.12
2018-03-06T22:29:06.081Z,25.23
2018-03-06T22:31:33.728Z,22.15
2018-03-06T22:34:01.366Z,23.73
2018-03-06T22:36:37.135Z,22.20
2018-03-06T22:39:04.758Z,22.65
2018-03-06T22:41:32.367Z,25.90
2018-03-06T22:43:59.944Z,21.85
2018-03-06T22:46:27.528Z,20.92
2018-03-06T22:48:55.905Z,21.10
2018-03-06T22:51:24.284Z,20.85
2018-03-06T22:53:52.637Z,18.12
2018-03-06T22:56:20.271Z,19.83
2018-03-06T22:58:47.840Z,18.42
2018-03-06T23:01:15.444Z,41.63
2018-03-06T23:03:43.824Z,18.08
2018-03-06T23:06:12.230Z,16.55
2018-03-06T23:08:39.850Z,16.80
2018-03-06T23:11:07.460Z,19.20
2018-03-06T23:13:35.047Z,15.93
2018-03-06T23:16:02.651Z,13.50
2018-03-06T23:18:30.230Z,14.07
2018-03-06T23:20:57.848Z,14.05
2018-03-06T23:23:25.434Z,11.70
2018-03-06T23:25:53.036Z,14.43
2018-03-06T23:28:20.624Z,12.15
2018-03-06T23:30:48.253Z,13.50
2018-03-06T23:33:15.892Z,13.23
2018-03-06T23:35:43.496Z,12.85
2018-03-06T23:38:11.090Z,12.98
2018-03-06T23:40:39.498Z,14.38
2018-03-06T23:43:07.165Z,15.52
2018-03-06T23:45:34.747Z,15.80
2018-03-06T23:48:02.338Z,14.77
2018-03-06T23:50:30.679Z,17.65
2018-03-06T23:52:58.292Z,13.98
2018-03-06T23:55:26.626Z,17.75
2018-03-06T23:57:54.252Z,16.02
